sensor_id;sensor_type;location;lat;lon;timestamp;pressure;altitude;pressure_sealevel;temperature;humidity
52535;BME280;38443;53.164;5.802;2023-09-07T00:01:19;102197.41;;;18.92;100.00
52535;BME280;38443;53.164;5.802;2023-09-07T00:03:45;102207.47;;;18.90;100.00
52535;BME280;38443;53.164;5.802;2023-09-07T00:06:10;102211.25;;;18.86;100.00
52535;BME280;38443;53.164;5.802;2023-09-07T00:08:35;102211.31;;;18.85;100.00
52535;BME280;38443;53.164;5.802;2023-09-07T00:11:05;102220.47;;;18.82;100.00
52535;BME280;38443;53.164;5.802;2023-09-07T00:13:31;102208.75;;;18.80;100.00
52535;BME280;38443;53.164;5.802;2023-09-07T00:16:01;102206.16;;;18.77;100.00
52535;BME280;38443;53.164;5.802;2023-09-07T00:18:27;102206.28;;;18.74;100.00
52535;BME280;38443;53.164;5.802;2023-09-07T00:20:52;102217.22;;;18.72;100.00
52535;BME280;38443;53.164;5.802;2023-09-07T00:23:18;102204.66;;;18.70;100.00
52535;BME280;38443;53.164;5.802;2023-09-07T00:25:45;102207.50;;;18.67;100.00
52535;BME280;38443;53.164;5.802;2023-09-07T00:28:10;102205.91;;;18.61;100.00
52535;BME280;38443;53.164;5.802;2023-09-07T00:30:35;102211.44;;;18.58;100.00
52535;BME280;38443;53.164;5.802;2023-09-07T00:33:00;102215.06;;;18.59;100.00
52535;BME280;38443;53.164;5.802;2023-09-07T00:35:26;102208.81;;;18.57;100.00
52535;BME280;38443;53.164;5.802;2023-09-07T00:37:51;102206.28;;;18.52;100.00
52535;BME280;38443;53.164;5.802;2023-09-07T00:40:16;102212.72;;;18.49;100.00
52535;BME280;38443;53.164;5.802;2023-09-07T00:42:42;102208.38;;;18.45;100.00
52535;BME280;38443;53.164;5.802;2023-09-07T00:45:07;102201.31;;;18.41;100.00
52535;BME280;38443;53.164;5.802;2023-09-07T00:47:34;102202.19;;;18.42;100.00
52535;BME280;38443;53.164;5.802;2023-09-07T00:50:01;102211.28;;;18.41;100.00
52535;BME280;38443;53.164;5.802;2023-09-07T00:52:27;102205.84;;;18.41;100.00
52535;BME280;38443;53.164;5.802;2023-09-07T00:54:52;102199.63;;;18.39;100.00
52535;BME280;38443;53.164;5.802;2023-09-07T00:57:18;102206.88;;;18.38;100.00
52535;BME280;38443;53.164;5.802;2023-09-07T00:59:43;102203.25;;;18.38;100.00
52535;BME280;38443;53.164;5.802;2023-09-07T01:02:08;102202.47;;;18.34;100.00
52535;BME280;38443;53.164;5.802;2023-09-07T01:04:34;102202.63;;;18.31;100.00
52535;BME280;38443;53.164;5.802;2023-09-07T01:07:07;102199.16;;;18.27;100.00
52535;BME280;38443;53.164;5.802;2023-09-07T01:09:36;102203.94;;;18.21;100.00
52535;BME280;38443;53.164;5.802;2023-09-07T01:12:05;102195.09;;;18.16;100.00
52535;BME280;38443;53.164;5.802;2023-09-07T01:14:35;102201.78;;;18.07;100.00
52535;BME280;38443;53.164;5.802;2023-09-07T01:17:01;102199.13;;;18.05;100.00
52535;BME280;38443;53.164;5.802;2023-09-07T01:19:26;102201.88;;;18.04;100.00
52535;BME280;38443;53.164;5.802;2023-09-07T01:21:52;102193.84;;;18.02;100.00
52535;BME280;38443;53.164;5.802;2023-09-07T01:24:17;102201.00;;;18.03;100.00
52535;BME280;38443;53.164;5.802;2023-09-07T01:26:43;102202.84;;;18.03;100.00
52535;BME280;38443;53.164;5.802;2023-09-07T01:29:08;102203.72;;;18.03;100.00
52535;BME280;38443;53.164;5.802;2023-09-07T01:31:37;102201.97;;;18.02;100.00
52535;BME280;38443;53.164;5.802;2023-09-07T01:34:03;102200.13;;;18.03;100.00
52535;BME280;38443;53.164;5.802;2023-09-07T01:36:29;102203.84;;;18.00;100.00
52535;BME280;38443;53.164;5.802;2023-09-07T01:38:54;102202.19;;;17.96;100.00
52535;BME280;38443;53.164;5.802;2023-09-07T01:41:20;102195.81;;;17.97;100.00
52535;BME280;38443;53.164;5.802;2023-09-07T01:43:45;102201.34;;;17.94;100.00
52535;BME280;38443;53.164;5.802;2023-09-07T01:46:10;102196.00;;;17.92;100.00
52535;BME280;38443;53.164;5.802;2023-09-07T01:48:36;102203.22;;;17.92;100.00
52535;BME280;38443;53.164;5.802;2023-09-07T01:51:01;102197.06;;;17.88;100.00
52535;BME280;38443;53.164;5.802;2023-09-07T01:53:26;102194.41;;;17.87;100.00
52535;BME280;38443;53.164;5.802;2023-09-07T01:55:54;102199.00;;;17.85;100.00
52535;BME280;38443;53.164;5.802;2023-09-07T01:58:20;102196.44;;;17.80;100.00
52535;BME280;38443;53.164;5.802;2023-09-07T02:00:46;102196.50;;;17.79;100.00
52535;BME280;38443;53.164;5.802;2023-09-07T02:03:11;102199.31;;;17.75;100.00
52535;BME280;38443;53.164;5.802;2023-09-07T02:05:36;102198.44;;;17.75;100.00
52535;BME280;38443;53.164;5.802;2023-09-07T02:08:02;102201.19;;;17.73;100.00
52535;BME280;38443;53.164;5.802;2023-09-07T02:10:27;102207.66;;;17.69;100.00
52535;BME280;38443;53.164;5.802;2023-09-07T02:12:52;102203.25;;;17.67;100.00
52535;BME280;38443;53.164;5.802;2023-09-07T02:15:18;102206.00;;;17.65;100.00
52535;BME280;38443;53.164;5.802;2023-09-07T02:17:43;102198.03;;;17.62;100.00
52535;BME280;38443;53.164;5.802;2023-09-07T02:20:11;102199.91;;;17.60;100.00
52535;BME280;38443;53.164;5.802;2023-09-07T02:22:37;102192.75;;;17.58;100.00
52535;BME280;38443;53.164;5.802;2023-09-07T02:25:02;102196.47;;;17.55;100.00
52535;BME280;38443;53.164;5.802;2023-09-07T02:27:28;102202.00;;;17.52;100.00
52535;BME280;38443;53.164;5.802;2023-09-07T02:29:53;102193.13;;;17.48;100.00
52535;BME280;38443;53.164;5.802;2023-09-07T02:32:19;102197.75;;;17.45;100.00
52535;BME280;38443;53.164;5.802;2023-09-07T02:34:44;102198.75;;;17.42;100.00
52535;BME280;38443;53.164;5.802;2023-09-07T02:37:09;102197.97;;;17.39;100.00
52535;BME280;38443;53.164;5.802;2023-09-07T02:39:34;102204.41;;;17.36;100.00
52535;BME280;38443;53.164;5.802;2023-09-07T02:42:00;102198.06;;;17.35;100.00
52535;BME280;38443;53.164;5.802;2023-09-07T02:44:25;102192.75;;;17.34;100.00
52535;BME280;38443;53.164;5.802;2023-09-07T02:46:50;102195.53;;;17.31;100.00
52535;BME280;38443;53.164;5.802;2023-09-07T02:49:16;102194.72;;;17.29;100.00
52535;BME280;38443;53.164;5.802;2023-09-07T02:51:41;102202.94;;;17.26;100.00
52535;BME280;38443;53.164;5.802;2023-09-07T02:54:06;102198.47;;;17.25;100.00
52535;BME280;38443;53.164;5.802;2023-09-07T02:56:32;102201.34;;;17.20;100.00
52535;BME280;38443;53.164;5.802;2023-09-07T02:58:57;102200.53;;;17.18;100.00
52535;BME280;38443;53.164;5.802;2023-09-07T03:01:22;102205.16;;;17.14;100.00
52535;BME280;38443;53.164;5.802;2023-09-07T03:03:48;102206.16;;;17.12;100.00
52535;BME280;38443;53.164;5.802;2023-09-07T03:06:14;102207.13;;;17.09;100.00
52535;BME280;38443;53.164;5.802;2023-09-07T03:08:42;102210.81;;;17.07;100.00
52535;BME280;38443;53.164;5.802;2023-09-07T03:11:08;102218.16;;;17.03;100.00
52535;BME280;38443;53.164;5.802;2023-09-07T03:13:34;102215.50;;;17.02;100.00
52535;BME280;38443;53.164;5.802;2023-09-07T03:16:00;102207.44;;;17.00;100.00
52535;BME280;38443;53.164;5.802;2023-09-07T03:18:25;102211.94;;;17.00;100.00
52535;BME280;38443;53.164;5.802;2023-09-07T03:20:52;102208.41;;;16.98;100.00
52535;BME280;38443;53.164;5.802;2023-09-07T03:23:18;102213.00;;;16.95;100.00
52535;BME280;38443;53.164;5.802;2023-09-07T03:25:43;102206.84;;;16.92;100.00
52535;BME280;38443;53.164;5.802;2023-09-07T03:28:09;102209.59;;;16.90;100.00
52535;BME280;38443;53.164;5.802;2023-09-07T03:30:34;102216.81;;;16.90;100.00
52535;BME280;38443;53.164;5.802;2023-09-07T03:32:59;102208.78;;;16.87;100.00
52535;BME280;38443;53.164;5.802;2023-09-07T03:35:25;102205.31;;;16.83;100.00
52535;BME280;38443;53.164;5.802;2023-09-07T03:37:50;102209.88;;;16.81;100.00
52535;BME280;38443;53.164;5.802;2023-09-07T03:40:15;102208.13;;;16.79;100.00
52535;BME280;38443;53.164;5.802;2023-09-07T03:42:40;102203.66;;;16.78;100.00
52535;BME280;38443;53.164;5.802;2023-09-07T03:45:06;102205.47;;;16.77;100.00
52535;BME280;38443;53.164;5.802;2023-09-07T03:47:32;102205.59;;;16.74;100.00
52535;BME280;38443;53.164;5.802;2023-09-07T03:49:57;102206.63;;;16.70;100.00
52535;BME280;38443;53.164;5.802;2023-09-07T03:52:24;102203.09;;;16.68;100.00
52535;BME280;38443;53.164;5.802;2023-09-07T03:54:51;102198.66;;;16.65;100.00
52535;BME280;38443;53.164;5.802;2023-09-07T03:57:18;102196.94;;;16.63;100.00
52535;BME280;38443;53.164;5.802;2023-09-07T03:59:44;102193.41;;;16.61;100.00
52535;BME280;38443;53.164;5.802;2023-09-07T04:02:09;102192.56;;;16.59;100.00
52535;BME280;38443;53.164;5.802;2023-09-07T04:04:34;102196.16;;;16.59;100.00
52535;BME280;38443;53.164;5.802;2023-09-07T04:07:00;102191.78;;;16.55;100.00
52535;BME280;38443;53.164;5.802;2023-09-07T04:09:25;102191.91;;;16.52;100.00
52535;BME280;38443;53.164;5.802;2023-09-07T04:11:50;102192.88;;;16.49;100.00
52535;BME280;38443;53.164;5.802;2023-09-07T04:14:16;102198.38;;;16.46;100.00
52535;BME280;38443;53.164;5.802;2023-09-07T04:16:42;102188.50;;;16.45;100.00
52535;BME280;38443;53.164;5.802;2023-09-07T04:19:07;102194.06;;;16.41;100.00
52535;BME280;38443;53.164;5.802;2023-09-07T04:21:32;102198.66;;;16.37;100.00
52535;BME280;38443;53.164;5.802;2023-09-07T04:23:57;102192.44;;;16.35;100.00
52535;BME280;38443;53.164;5.802;2023-09-07T04:26:23;102184.38;;;16.33;100.00
52535;BME280;38443;53.164;5.802;2023-09-07T04:28:48;102197.00;;;16.33;100.00
52535;BME280;38443;53.164;5.802;2023-09-07T04:31:13;102189.75;;;16.33;100.00
52535;BME280;38443;53.164;5.802;2023-09-07T04:33:39;102196.16;;;16.31;100.00
52535;BME280;38443;53.164;5.802;2023-09-07T04:36:14;102196.28;;;16.28;100.00
52535;BME280;38443;53.164;5.802;2023-09-07T04:38:40;102199.03;;;16.26;100.00
52535;BME280;38443;53.164;5.802;2023-09-07T04:41:09;102213.44;;;16.25;100.00
52535;BME280;38443;53.164;5.802;2023-09-07T04:43:35;102204.50;;;16.23;100.00
52535;BME280;38443;53.164;5.802;2023-09-07T04:46:01;102220.72;;;16.23;100.00
52535;BME280;38443;53.164;5.802;2023-09-07T04:48:26;102217.19;;;16.21;100.00
52535;BME280;38443;53.164;5.802;2023-09-07T04:50:59;102214.47;;;16.21;100.00
52535;BME280;38443;53.164;5.802;2023-09-07T04:53:25;102213.63;;;16.19;100.00
52535;BME280;38443;53.164;5.802;2023-09-07T04:55:50;102216.38;;;16.18;100.00
52535;BME280;38443;53.164;5.802;2023-09-07T04:58:15;102223.66;;;16.15;100.00
52535;BME280;38443;53.164;5.802;2023-09-07T05:00:40;102219.22;;;16.13;100.00
52535;BME280;38443;53.164;5.802;2023-09-07T05:03:06;102223.75;;;16.12;100.00
52535;BME280;38443;53.164;5.802;2023-09-07T05:05:31;102213.94;;;16.10;100.00
52535;BME280;38443;53.164;5.802;2023-09-07T05:07:56;102226.53;;;16.09;100.00
52535;BME280;38443;53.164;5.802;2023-09-07T05:10:22;102230.19;;;16.08;100.00
52535;BME280;38443;53.164;5.802;2023-09-07T05:12:47;102232.97;;;16.05;100.00
52535;BME280;38443;53.164;5.802;2023-09-07T05:15:12;102234.78;;;16.05;100.00
52535;BME280;38443;53.164;5.802;2023-09-07T05:17:37;102237.53;;;16.03;100.00
52535;BME280;38443;53.164;5.802;2023-09-07T05:20:03;102233.03;;;16.04;100.00
52535;BME280;38443;53.164;5.802;2023-09-07T05:22:29;102232.13;;;16.03;100.00
52535;BME280;38443;53.164;5.802;2023-09-07T05:24:55;102235.72;;;16.04;100.00
52535;BME280;38443;53.164;5.802;2023-09-07T05:27:20;102234.78;;;16.05;100.00
52535;BME280;38443;53.164;5.802;2023-09-07T05:29:45;102235.66;;;16.05;100.00
52535;BME280;38443;53.164;5.802;2023-09-07T05:32:10;102241.91;;;16.07;100.00
52535;BME280;38443;53.164;5.802;2023-09-07T05:34:36;102238.28;;;16.08;100.00
52535;BME280;38443;53.164;5.802;2023-09-07T05:37:01;102246.28;;;16.11;100.00
52535;BME280;38443;53.164;5.802;2023-09-07T05:39:26;102245.31;;;16.14;100.00
52535;BME280;38443;53.164;5.802;2023-09-07T05:41:52;102246.09;;;16.18;100.00
52535;BME280;38443;53.164;5.802;2023-09-07T05:44:17;102249.56;;;16.23;100.00
52535;BME280;38443;53.164;5.802;2023-09-07T05:46:42;102243.16;;;16.25;100.00
52535;BME280;38443;53.164;5.802;2023-09-07T05:49:07;102245.75;;;16.30;100.00
52535;BME280;38443;53.164;5.802;2023-09-07T05:51:33;102251.91;;;16.33;100.00
52535;BME280;38443;53.164;5.802;2023-09-07T05:53:58;102256.25;;;16.39;100.00
52535;BME280;38443;53.164;5.802;2023-09-07T05:56:23;102257.00;;;16.44;100.00
52535;BME280;38443;53.164;5.802;2023-09-07T05:58:49;102260.41;;;16.51;100.00
52535;BME280;38443;53.164;5.802;2023-09-07T06:01:14;102263.94;;;16.53;100.00
52535;BME280;38443;53.164;5.802;2023-09-07T06:03:39;102261.03;;;16.59;100.00
52535;BME280;38443;53.164;5.802;2023-09-07T06:06:05;102256.41;;;16.63;100.00
52535;BME280;38443;53.164;5.802;2023-09-07T06:08:30;102258.88;;;16.70;100.00
52535;BME280;38443;53.164;5.802;2023-09-07T06:10:55;102261.44;;;16.75;100.00
52535;BME280;38443;53.164;5.802;2023-09-07T06:13:21;102268.47;;;16.82;100.00
52535;BME280;38443;53.164;5.802;2023-09-07T06:15:46;102264.66;;;16.88;100.00
52535;BME280;38443;53.164;5.802;2023-09-07T06:18:11;102267.22;;;16.92;100.00
52535;BME280;38443;53.164;5.802;2023-09-07T06:20:37;102271.53;;;16.98;100.00
52535;BME280;38443;53.164;5.802;2023-09-07T06:23:02;102277.63;;;17.05;100.00
52535;BME280;38443;53.164;5.802;2023-09-07T06:25:27;102272.00;;;17.11;100.00
52535;BME280;38443;53.164;5.802;2023-09-07T06:27:53;102270.66;;;17.24;100.00
52535;BME280;38443;53.164;5.802;2023-09-07T06:30:18;102261.75;;;17.46;100.00
52535;BME280;38443;53.164;5.802;2023-09-07T06:32:44;102263.16;;;17.58;100.00
52535;BME280;38443;53.164;5.802;2023-09-07T06:35:09;102266.69;;;17.86;100.00
52535;BME280;38443;53.164;5.802;2023-09-07T06:37:35;102264.06;;;18.76;100.00
52535;BME280;38443;53.164;5.802;2023-09-07T06:40:02;102256.78;;;19.84;100.00
52535;BME280;38443;53.164;5.802;2023-09-07T06:42:29;102251.53;;;20.76;100.00
52535;BME280;38443;53.164;5.802;2023-09-07T06:44:56;102238.97;;;21.44;100.00
52535;BME280;38443;53.164;5.802;2023-09-07T06:47:21;102235.25;;;21.80;100.00
52535;BME280;38443;53.164;5.802;2023-09-07T06:49:46;102231.44;;;22.16;100.00
52535;BME280;38443;53.164;5.802;2023-09-07T06:52:12;102229.91;;;22.60;100.00
52535;BME280;38443;53.164;5.802;2023-09-07T06:54:38;102231.44;;;22.96;100.00
52535;BME280;38443;53.164;5.802;2023-09-07T06:57:09;102225.03;;;23.27;100.00
52535;BME280;38443;53.164;5.802;2023-09-07T06:59:34;102225.28;;;23.38;100.00
52535;BME280;38443;53.164;5.802;2023-09-07T07:02:00;102230.25;;;23.46;100.00
52535;BME280;38443;53.164;5.802;2023-09-07T07:04:25;102235.75;;;23.60;100.00
52535;BME280;38443;53.164;5.802;2023-09-07T07:06:51;102236.28;;;23.37;100.00
52535;BME280;38443;53.164;5.802;2023-09-07T07:09:16;102245.44;;;23.21;100.00
52535;BME280;38443;53.164;5.802;2023-09-07T07:11:41;102244.53;;;23.21;100.00
52535;BME280;38443;53.164;5.802;2023-09-07T07:14:08;102243.16;;;23.58;100.00
52535;BME280;38443;53.164;5.802;2023-09-07T07:16:34;102241.25;;;24.03;100.00
52535;BME280;38443;53.164;5.802;2023-09-07T07:18:59;102240.66;;;24.56;100.00
52535;BME280;38443;53.164;5.802;2023-09-07T07:21:24;102233.88;;;24.88;100.00
52535;BME280;38443;53.164;5.802;2023-09-07T07:23:50;102240.00;;;25.19;100.00
52535;BME280;38443;53.164;5.802;2023-09-07T07:26:15;102236.13;;;25.49;100.00
52535;BME280;38443;53.164;5.802;2023-09-07T07:28:41;102233.31;;;25.76;100.00
52535;BME280;38443;53.164;5.802;2023-09-07T07:31:07;102232.84;;;26.21;100.00
52535;BME280;38443;53.164;5.802;2023-09-07T07:33:36;102238.16;;;26.48;100.00
52535;BME280;38443;53.164;5.802;2023-09-07T07:36:03;102230.66;;;26.63;100.00
52535;BME280;38443;53.164;5.802;2023-09-07T07:38:28;102232.41;;;26.64;100.00
52535;BME280;38443;53.164;5.802;2023-09-07T07:40:53;102242.97;;;26.70;100.00
52535;BME280;38443;53.164;5.802;2023-09-07T07:43:19;102230.75;;;26.74;100.00
52535;BME280;38443;53.164;5.802;2023-09-07T07:45:44;102232.59;;;26.74;100.00
52535;BME280;38443;53.164;5.802;2023-09-07T07:48:09;102227.22;;;26.72;100.00
52535;BME280;38443;53.164;5.802;2023-09-07T07:50:38;102228.75;;;26.76;100.00
52535;BME280;38443;53.164;5.802;2023-09-07T07:53:07;102229.03;;;26.84;100.00
52535;BME280;38443;53.164;5.802;2023-09-07T07:55:36;102230.09;;;26.95;100.00
52535;BME280;38443;53.164;5.802;2023-09-07T07:58:06;102227.38;;;27.06;100.00
52535;BME280;38443;53.164;5.802;2023-09-07T08:00:35;102228.94;;;27.21;100.00
52535;BME280;38443;53.164;5.802;2023-09-07T08:03:01;102227.72;;;27.25;100.00
52535;BME280;38443;53.164;5.802;2023-09-07T08:05:34;102224.75;;;27.29;100.00
52535;BME280;38443;53.164;5.802;2023-09-07T08:08:00;102222.69;;;27.19;100.00
52535;BME280;38443;53.164;5.802;2023-09-07T08:10:25;102225.09;;;27.00;100.00
52535;BME280;38443;53.164;5.802;2023-09-07T08:12:56;102222.34;;;27.00;100.00
52535;BME280;38443;53.164;5.802;2023-09-07T08:15:21;102217.09;;;26.97;100.00
52535;BME280;38443;53.164;5.802;2023-09-07T08:17:48;102215.00;;;27.00;100.00
52535;BME280;38443;53.164;5.802;2023-09-07T08:20:14;102210.84;;;26.95;100.00
52535;BME280;38443;53.164;5.802;2023-09-07T08:22:39;102199.75;;;26.96;100.00
52535;BME280;38443;53.164;5.802;2023-09-07T08:25:10;102204.59;;;26.93;100.00
52535;BME280;38443;53.164;5.802;2023-09-07T08:27:36;102200.19;;;26.90;100.00
52535;BME280;38443;53.164;5.802;2023-09-07T08:30:02;102206.91;;;26.86;100.00
52535;BME280;38443;53.164;5.802;2023-09-07T08:32:28;102207.16;;;27.07;100.00
52535;BME280;38443;53.164;5.802;2023-09-07T08:34:55;102206.44;;;27.16;100.00
52535;BME280;38443;53.164;5.802;2023-09-07T08:37:25;102207.72;;;27.23;100.00
52535;BME280;38443;53.164;5.802;2023-09-07T08:39:51;102205.50;;;27.29;100.00
52535;BME280;38443;53.164;5.802;2023-09-07T08:42:16;102204.44;;;27.18;100.00
52535;BME280;38443;53.164;5.802;2023-09-07T08:44:42;102200.38;;;27.35;100.00
52535;BME280;38443;53.164;5.802;2023-09-07T08:47:08;102200.28;;;27.37;99.27
52535;BME280;38443;53.164;5.802;2023-09-07T08:49:33;102205.19;;;27.20;100.00
52535;BME280;38443;53.164;5.802;2023-09-07T08:52:01;102199.41;;;27.12;100.00
52535;BME280;38443;53.164;5.802;2023-09-07T08:54:28;102203.81;;;27.15;100.00
52535;BME280;38443;53.164;5.802;2023-09-07T08:56:56;102203.28;;;27.10;99.21
52535;BME280;38443;53.164;5.802;2023-09-07T08:59:22;102194.84;;;26.89;100.00
52535;BME280;38443;53.164;5.802;2023-09-07T09:01:47;102190.81;;;26.81;100.00
52535;BME280;38443;53.164;5.802;2023-09-07T09:04:13;102190.22;;;26.65;100.00
52535;BME280;38443;53.164;5.802;2023-09-07T09:06:38;102184.44;;;26.44;100.00
52535;BME280;38443;53.164;5.802;2023-09-07T09:09:03;102188.94;;;26.21;100.00
52535;BME280;38443;53.164;5.802;2023-09-07T09:11:32;102186.19;;;26.21;100.00
52535;BME280;38443;53.164;5.802;2023-09-07T09:13:57;102185.94;;;26.24;100.00
52535;BME280;38443;53.164;5.802;2023-09-07T09:16:22;102192.34;;;26.12;100.00
52535;BME280;38443;53.164;5.802;2023-09-07T09:18:49;102185.38;;;25.95;100.00
52535;BME280;38443;53.164;5.802;2023-09-07T09:21:17;102182.50;;;25.71;100.00
52535;BME280;38443;53.164;5.802;2023-09-07T09:23:43;102186.59;;;25.52;100.00
52535;BME280;38443;53.164;5.802;2023-09-07T09:26:08;102179.88;;;25.43;100.00
52535;BME280;38443;53.164;5.802;2023-09-07T09:28:34;102182.19;;;25.37;100.00
52535;BME280;38443;53.164;5.802;2023-09-07T09:31:01;102181.31;;;25.36;100.00
52535;BME280;38443;53.164;5.802;2023-09-07T09:33:30;102176.03;;;25.33;100.00
52535;BME280;38443;53.164;5.802;2023-09-07T09:35:56;102178.13;;;25.42;100.00
52535;BME280;38443;53.164;5.802;2023-09-07T09:38:22;102174.09;;;25.48;100.00
52535;BME280;38443;53.164;5.802;2023-09-07T09:40:47;102167.84;;;25.46;100.00
52535;BME280;38443;53.164;5.802;2023-09-07T09:43:13;102173.50;;;25.56;100.00
52535;BME280;38443;53.164;5.802;2023-09-07T09:45:38;102174.94;;;25.61;100.00
52535;BME280;38443;53.164;5.802;2023-09-07T09:48:05;102165.28;;;25.68;100.00
52535;BME280;38443;53.164;5.802;2023-09-07T09:50:31;102175.25;;;25.70;100.00
52535;BME280;38443;53.164;5.802;2023-09-07T09:52:57;102164.72;;;25.63;100.00
52535;BME280;38443;53.164;5.802;2023-09-07T09:55:25;102162.75;;;25.65;100.00
52535;BME280;38443;53.164;5.802;2023-09-07T09:57:50;102175.91;;;25.73;100.00
52535;BME280;38443;53.164;5.802;2023-09-07T10:00:16;102168.88;;;25.82;100.00
52535;BME280;38443;53.164;5.802;2023-09-07T10:02:43;102166.25;;;25.93;100.00
52535;BME280;38443;53.164;5.802;2023-09-07T10:05:10;102174.28;;;25.96;100.00
52535;BME280;38443;53.164;5.802;2023-09-07T10:07:44;102167.78;;;25.97;100.00
52535;BME280;38443;53.164;5.802;2023-09-07T10:10:12;102170.75;;;26.07;100.00
52535;BME280;38443;53.164;5.802;2023-09-07T10:12:42;102167.94;;;26.20;100.00
52535;BME280;38443;53.164;5.802;2023-09-07T10:15:28;102167.50;;;26.26;100.00
52535;BME280;38443;53.164;5.802;2023-09-07T10:18:11;102168.28;;;26.28;100.00
52535;BME280;38443;53.164;5.802;2023-09-07T10:21:06;102167.91;;;26.33;100.00
52535;BME280;38443;53.164;5.802;2023-09-07T10:23:42;102161.50;;;26.45;100.00
52535;BME280;38443;53.164;5.802;2023-09-07T10:26:15;102160.38;;;26.60;100.00
52535;BME280;38443;53.164;5.802;2023-09-07T10:28:43;102160.00;;;26.65;100.00
52535;BME280;38443;53.164;5.802;2023-09-07T10:31:17;102162.88;;;26.63;100.00
52535;BME280;38443;53.164;5.802;2023-09-07T10:33:43;102157.38;;;26.63;100.00
52535;BME280;38443;53.164;5.802;2023-09-07T10:36:20;102152.63;;;26.65;100.00
52535;BME280;38443;53.164;5.802;2023-09-07T10:38:46;102145.81;;;26.71;100.00
52535;BME280;38443;53.164;5.802;2023-09-07T10:41:11;102152.44;;;26.80;100.00
52535;BME280;38443;53.164;5.802;2023-09-07T10:43:46;102153.09;;;26.83;100.00
52535;BME280;38443;53.164;5.802;2023-09-07T10:46:13;102144.63;;;26.86;100.00
52535;BME280;38443;53.164;5.802;2023-09-07T10:48:38;102143.38;;;26.91;100.00
52535;BME280;38443;53.164;5.802;2023-09-07T10:51:03;102145.13;;;26.92;100.00
52535;BME280;38443;53.164;5.802;2023-09-07T10:53:31;102139.78;;;27.01;100.00
52535;BME280;38443;53.164;5.802;2023-09-07T10:55:59;102145.97;;;27.16;100.00
52535;BME280;38443;53.164;5.802;2023-09-07T10:58:30;102139.25;;;27.32;100.00
52535;BME280;38443;53.164;5.802;2023-09-07T11:00:56;102132.88;;;27.31;100.00
52535;BME280;38443;53.164;5.802;2023-09-07T11:03:24;102131.75;;;27.34;100.00
52535;BME280;38443;53.164;5.802;2023-09-07T11:05:51;102132.88;;;27.31;100.00
52535;BME280;38443;53.164;5.802;2023-09-07T11:08:18;102126.66;;;27.40;100.00
52535;BME280;38443;53.164;5.802;2023-09-07T11:10:43;102125.03;;;27.49;100.00
52535;BME280;38443;53.164;5.802;2023-09-07T11:13:09;102116.66;;;27.51;100.00
52535;BME280;38443;53.164;5.802;2023-09-07T11:15:34;102116.28;;;27.55;100.00
52535;BME280;38443;53.164;5.802;2023-09-07T11:18:07;102118.00;;;27.56;100.00
52535;BME280;38443;53.164;5.802;2023-09-07T11:20:34;102117.53;;;27.51;100.00
52535;BME280;38443;53.164;5.802;2023-09-07T11:23:00;102114.03;;;27.60;100.00
52535;BME280;38443;53.164;5.802;2023-09-07T11:25:26;102110.91;;;27.65;100.00
52535;BME280;38443;53.164;5.802;2023-09-07T11:27:52;102105.41;;;27.65;100.00
52535;BME280;38443;53.164;5.802;2023-09-07T11:30:23;102106.28;;;27.77;100.00
52535;BME280;38443;53.164;5.802;2023-09-07T11:32:49;102101.78;;;27.87;100.00
52535;BME280;38443;53.164;5.802;2023-09-07T11:35:14;102109.03;;;27.99;100.00
52535;BME280;38443;53.164;5.802;2023-09-07T11:37:39;102101.63;;;28.00;99.31
52535;BME280;38443;53.164;5.802;2023-09-07T11:40:06;102091.75;;;27.97;99.87
52535;BME280;38443;53.164;5.802;2023-09-07T11:42:37;102103.75;;;27.96;99.60
52535;BME280;38443;53.164;5.802;2023-09-07T11:45:04;102093.50;;;27.98;99.34
52535;BME280;38443;53.164;5.802;2023-09-07T11:47:30;102092.72;;;28.08;99.52
52535;BME280;38443;53.164;5.802;2023-09-07T11:49:55;102084.06;;;28.12;98.80
52535;BME280;38443;53.164;5.802;2023-09-07T11:52:21;102080.22;;;28.15;98.04
52535;BME280;38443;53.164;5.802;2023-09-07T11:54:46;102078.03;;;28.18;97.49
52535;BME280;38443;53.164;5.802;2023-09-07T11:57:11;102086.31;;;28.18;96.88
52535;BME280;38443;53.164;5.802;2023-09-07T11:59:36;102078.31;;;28.27;96.22
52535;BME280;38443;53.164;5.802;2023-09-07T12:02:02;102078.78;;;28.20;95.90
52535;BME280;38443;53.164;5.802;2023-09-07T12:04:27;102074.44;;;28.18;96.72
52535;BME280;38443;53.164;5.802;2023-09-07T12:06:52;102068.19;;;28.16;96.21
52535;BME280;38443;53.164;5.802;2023-09-07T12:09:18;102069.31;;;28.13;97.33
52535;BME280;38443;53.164;5.802;2023-09-07T12:11:43;102057.56;;;28.11;96.61
52535;BME280;38443;53.164;5.802;2023-09-07T12:14:09;102060.72;;;28.07;97.35
52535;BME280;38443;53.164;5.802;2023-09-07T12:16:34;102056.31;;;28.04;94.75
52535;BME280;38443;53.164;5.802;2023-09-07T12:18:59;102051.31;;;28.09;91.35
52535;BME280;38443;53.164;5.802;2023-09-07T12:21:25;102051.78;;;28.14;89.82
52535;BME280;38443;53.164;5.802;2023-09-07T12:23:50;102054.00;;;28.20;89.18
52535;BME280;38443;53.164;5.802;2023-09-07T12:26:15;102053.63;;;28.25;89.33
52535;BME280;38443;53.164;5.802;2023-09-07T12:28:42;102049.63;;;28.29;87.62
52535;BME280;38443;53.164;5.802;2023-09-07T12:31:07;102048.75;;;28.29;87.79
52535;BME280;38443;53.164;5.802;2023-09-07T12:33:32;102045.50;;;28.23;86.06
52535;BME280;38443;53.164;5.802;2023-09-07T12:35:58;102033.88;;;28.20;86.47